Time;durP1;ratioP1;P1;durP2;ratioP2;P2;SDS_P1;SDS_P2;PMS_P1;PMS_P2;Temp;Humidity;BMP_temperature;BMP_pressure;BME280_temperature;BME280_humidity;BME280_pressure;Samples;Min_cycle;Max_cycle;Signal;HPM_P1;HPM_P2
2022/12/04 00:02:09;;;;;;;;;;;-0.30;99.90;;;;;;5052941;28;19937;-77
2022/12/04 00:04:35;;;;;;;;;;;-0.30;99.90;;;;;;5052647;28;19974;-77
2022/12/04 00:07:00;;;;;;;;;;;-0.30;99.90;;;;;;5034871;28;19983;-76
2022/12/04 00:09:26;;;;;;;;;;;0.60;99.90;;;;;;5035816;28;19928;-76
2022/12/04 00:11:52;;;;;;;;;;;-0.30;99.90;;;;;;5018215;28;19925;-76
2022/12/04 00:14:17;;;;;;;;;;;-0.30;99.90;;;;;;5035709;28;19921;-77
2022/12/04 00:16:43;;;;;;;;;;;-0.30;99.90;;;;;;5031316;28;19929;-76
2022/12/04 00:19:09;;;;;;;;;;;-0.30;99.90;;;;;;5050063;28;19943;-76
2022/12/04 00:21:35;;;;;;;;;;;-0.30;99.90;;;;;;5038394;28;19930;-76
2022/12/04 00:24:01;;;;;;;;;;;-0.30;99.90;;;;;;5051700;28;20008;-76
2022/12/04 00:26:27;;;;;;;;;;;-0.30;99.90;;;;;;5048285;28;20397;-77
2022/12/04 00:28:53;;;;;;;;;;;-0.30;99.90;;;;;;5034033;28;19968;-77
2022/12/04 00:31:20;;;;;;;;;;;-0.30;99.90;;;;;;5046675;28;20014;-77
2022/12/04 00:33:46;;;;;;;;;;;1.80;99.90;;;;;;5033697;28;20023;-77
2022/12/04 00:36:12;;;;;;;;;;;-0.30;99.90;;;;;;5036507;28;20023;-76
2022/12/04 00:38:38;;;;;;;;;;;-0.30;99.90;;;;;;5054820;28;19920;-77
2022/12/04 00:41:06;;;;;;;;;;;0.10;99.90;;;;;;5031381;28;19920;-76
2022/12/04 00:43:32;;;;;;;;;;;-0.30;99.90;;;;;;5032627;28;19924;-76
2022/12/04 00:45:57;;;;;;;;;;;-0.30;99.90;;;;;;5037487;28;19935;-77
2022/12/04 00:48:23;;;;;;;;;;;-0.30;99.90;;;;;;5032754;28;19927;-76
2022/12/04 00:50:49;;;;;;;;;;;1.50;99.90;;;;;;5053181;28;19975;-77
2022/12/04 00:53:14;;;;;;;;;;;-0.30;99.90;;;;;;5029422;28;19928;-77
2022/12/04 00:55:41;;;;;;;;;;;-0.30;99.90;;;;;;5036977;28;20352;-76
2022/12/04 00:58:06;;;;;;;;;;;-0.30;99.90;;;;;;5030296;28;20021;-77
2022/12/04 01:00:33;;;;;;;;;;;-0.30;99.90;;;;;;5035552;28;19967;-76
2022/12/04 01:02:59;;;;;;;;;;;-0.30;99.90;;;;;;5047160;28;19932;-77
2022/12/04 01:05:25;;;;;;;;;;;0.70;99.90;;;;;;5051485;28;19931;-77
2022/12/04 01:07:50;;;;;;;;;;;-0.30;99.90;;;;;;5051974;28;20441;-76
2022/12/04 01:10:16;;;;;;;;;;;0.60;99.90;;;;;;5049389;28;19957;-77
2022/12/04 01:12:41;;;;;;;;;;;-0.30;99.90;;;;;;5048695;28;19925;-76
2022/12/04 01:15:07;;;;;;;;;;;-0.40;99.90;;;;;;5048396;28;19928;-77
2022/12/04 01:17:33;;;;;;;;;;;-0.30;99.90;;;;;;5053926;28;19924;-76
2022/12/04 01:19:58;;;;;;;;;;;-0.40;99.90;;;;;;5031383;28;19933;-77
2022/12/04 01:22:24;;;;;;;;;;;-0.40;99.90;;;;;;5046508;28;19925;-76
2022/12/04 01:24:49;;;;;;;;;;;-0.30;99.90;;;;;;5033954;28;19920;-76
2022/12/04 01:27:15;;;;;;;;;;;-0.40;99.90;;;;;;5050761;28;20401;-77
2022/12/04 01:29:40;;;;;;;;;;;-0.30;99.90;;;;;;5049632;28;20010;-77
2022/12/04 01:32:06;;;;;;;;;;;-0.30;99.90;;;;;;5038810;28;19964;-77
2022/12/04 01:34:31;;;;;;;;;;;-0.30;99.90;;;;;;5048995;28;20335;-76
2022/12/04 01:36:57;;;;;;;;;;;-0.30;99.90;;;;;;5049715;28;19920;-76
2022/12/04 01:39:23;;;;;;;;;;;-0.30;99.90;;;;;;5049371;28;19924;-77
2022/12/04 01:41:48;;;;;;;;;;;-0.30;99.90;;;;;;5027346;28;19983;-77
2022/12/04 01:44:19;;;;;;;;;;;-0.30;99.90;;;;;;5045851;28;20282;-76
2022/12/04 01:46:46;;;;;;;;;;;-0.30;99.90;;;;;;5052049;28;20014;-77
2022/12/04 01:49:22;;;;;;;;;;;0.20;99.90;;;;;;5050071;28;20337;-77
2022/12/04 01:51:53;;;;;;;;;;;0.30;99.90;;;;;;5050272;28;19921;-77
2022/12/04 01:54:45;;;;;;;;;;;-0.30;99.90;;;;;;5047361;28;20716;-77
2022/12/04 01:57:15;;;;;;;;;;;-0.30;99.90;;;;;;5066450;28;20428;-76
2022/12/04 01:59:46;;;;;;;;;;;-0.30;99.90;;;;;;5032332;28;19928;-77
2022/12/04 02:02:14;;;;;;;;;;;-0.30;99.90;;;;;;5034471;28;19928;-76
2022/12/04 02:04:39;;;;;;;;;;;-0.30;99.90;;;;;;5049446;28;20437;-76
2022/12/04 02:07:05;;;;;;;;;;;-0.30;99.90;;;;;;5037366;28;19971;-76
2022/12/04 02:09:31;;;;;;;;;;;-0.30;99.90;;;;;;5034199;28;19932;-75
2022/12/04 02:12:03;;;;;;;;;;;-0.40;99.90;;;;;;5048286;28;19925;-76
2022/12/04 02:14:35;;;;;;;;;;;-0.40;99.90;;;;;;5049276;28;19921;-77
2022/12/04 02:17:03;;;;;;;;;;;-0.30;99.90;;;;;;5032113;28;20334;-77
2022/12/04 02:19:45;;;;;;;;;;;-0.40;99.90;;;;;;5048008;28;19975;-77
2022/12/04 02:22:23;;;;;;;;;;;-0.40;99.90;;;;;;5037589;28;19928;-76
2022/12/04 02:24:55;;;;;;;;;;;-0.40;99.90;;;;;;5055131;28;19982;-76
2022/12/04 02:27:24;;;;;;;;;;;-0.40;99.90;;;;;;5047294;28;20313;-77
2022/12/04 02:29:49;;;;;;;;;;;-0.40;99.90;;;;;;5050940;28;20357;-76
2022/12/04 02:32:15;;;;;;;;;;;-0.40;99.90;;;;;;5030727;28;19952;-76
2022/12/04 02:34:43;;;;;;;;;;;1.70;99.90;;;;;;5033330;28;19978;-77
2022/12/04 02:37:45;;;;;;;;;;;-0.30;99.90;;;;;;5043705;28;19925;-77
2022/12/04 02:40:20;;;;;;;;;;;-0.40;99.90;;;;;;4970347;28;20472;-77
2022/12/04 02:42:50;;;;;;;;;;;-0.40;99.90;;;;;;5034784;28;19976;-76
2022/12/04 02:45:22;;;;;;;;;;;-0.40;99.90;;;;;;5038492;28;19920;-77
2022/12/04 02:47:49;;;;;;;;;;;-0.30;99.90;;;;;;5027761;28;19971;-76
2022/12/04 02:50:16;;;;;;;;;;;0.70;99.90;;;;;;5034647;28;19928;-77
2022/12/04 02:52:44;;;;;;;;;;;-0.40;99.90;;;;;;5048922;28;20007;-76
2022/12/04 02:55:17;;;;;;;;;;;-0.40;99.90;;;;;;5033498;28;19920;-76
2022/12/04 02:57:47;;;;;;;;;;;-0.40;99.90;;;;;;5029299;28;19924;-77
2022/12/04 03:00:13;;;;;;;;;;;-0.30;99.90;;;;;;5039619;28;19924;-76
2022/12/04 03:02:50;;;;;;;;;;;-0.40;99.90;;;;;;5033667;28;20401;-76
2022/12/04 03:05:18;;;;;;;;;;;-0.40;99.90;;;;;;5052274;28;19959;-76
2022/12/04 03:07:58;;;;;;;;;;;-0.40;99.90;;;;;;5042975;28;20686;-75
2022/12/04 03:10:26;;;;;;;;;;;-0.40;99.90;;;;;;5051751;28;19964;-76
2022/12/04 03:12:52;;;;;;;;;;;-0.40;99.90;;;;;;5034106;28;19925;-76
2022/12/04 03:15:36;;;;;;;;;;;-0.40;99.90;;;;;;5035751;28;19927;-76
2022/12/04 03:18:01;;;;;;;;;;;-0.40;99.90;;;;;;5034235;28;19929;-76
2022/12/04 03:20:28;;;;;;;;;;;-0.40;99.90;;;;;;5050236;28;20293;-76
2022/12/04 03:22:58;;;;;;;;;;;-0.40;99.90;;;;;;5049447;28;19920;-76
2022/12/04 03:25:27;;;;;;;;;;;-0.40;99.90;;;;;;5051176;28;19927;-76
2022/12/04 03:27:55;;;;;;;;;;;-0.40;99.90;;;;;;5045218;28;19931;-76
2022/12/04 03:30:21;;;;;;;;;;;-0.40;99.90;;;;;;5039196;28;19950;-76
2022/12/04 03:33:05;;;;;;;;;;;-0.40;99.90;;;;;;5051478;28;19928;-76
2022/12/04 03:35:34;;;;;;;;;;;-0.40;99.90;;;;;;5032953;28;19931;-76
2022/12/04 03:38:03;;;;;;;;;;;0.20;99.90;;;;;;5050589;28;19920;-76
2022/12/04 03:40:31;;;;;;;;;;;-0.40;99.90;;;;;;5041867;28;20433;-75
2022/12/04 03:42:57;;;;;;;;;;;-0.40;99.90;;;;;;5052481;28;20420;-77
2022/12/04 03:45:25;;;;;;;;;;;-0.40;99.90;;;;;;5037889;28;19928;-76
2022/12/04 03:47:57;;;;;;;;;;;-0.40;99.90;;;;;;5051978;28;20320;-76
2022/12/04 03:50:45;;;;;;;;;;;-0.40;99.90;;;;;;5048808;28;19933;-76
2022/12/04 03:53:17;;;;;;;;;;;-0.40;99.90;;;;;;5047801;28;20014;-76
2022/12/04 03:55:50;;;;;;;;;;;-0.40;99.90;;;;;;5054667;28;20016;-76
2022/12/04 03:58:19;;;;;;;;;;;-0.40;99.90;;;;;;5050970;28;20637;-77
2022/12/04 04:00:46;;;;;;;;;;;-0.40;99.90;;;;;;5052003;28;19928;-76
2022/12/04 04:03:15;;;;;;;;;;;0.70;99.90;;;;;;5053910;28;20024;-76
2022/12/04 04:05:43;;;;;;;;;;;-0.40;99.90;;;;;;5051941;28;20012;-76
2022/12/04 04:08:24;;;;;;;;;;;-0.40;99.90;;;;;;5036896;28;19931;-76
2022/12/04 04:10:51;;;;;;;;;;;-0.40;99.90;;;;;;5040054;28;19968;-76
2022/12/04 04:24:36;;;;;;;;;;;0.40;99.90;;;;;;5067409;28;19979;-76
2022/12/04 04:27:01;;;;;;;;;;;-0.50;99.90;;;;;;5055300;28;20015;-76
2022/12/04 04:29:27;;;;;;;;;;;0.00;99.90;;;;;;5051834;28;20012;-76
2022/12/04 04:32:11;;;;;;;;;;;1.40;99.90;;;;;;5037140;28;19943;-76
2022/12/04 04:34:42;;;;;;;;;;;-0.50;99.90;;;;;;5031776;28;20011;-76
2022/12/04 04:37:15;;;;;;;;;;;-0.50;99.90;;;;;;5032710;28;20040;-76
2022/12/04 04:39:46;;;;;;;;;;;-0.50;99.90;;;;;;5051756;28;20509;-76
2022/12/04 04:42:20;;;;;;;;;;;-0.50;99.90;;;;;;5057549;28;19925;-76
2022/12/04 04:44:56;;;;;;;;;;;-0.50;99.90;;;;;;5033796;28;19944;-76
2022/12/04 04:47:45;;;;;;;;;;;-0.50;99.90;;;;;;5035021;28;19930;-76
2022/12/04 04:50:11;;;;;;;;;;;-0.50;99.90;;;;;;5029423;28;21197;-76
2022/12/04 04:52:41;;;;;;;;;;;-0.50;99.90;;;;;;5047629;28;20220;-76
2022/12/04 04:55:08;;;;;;;;;;;-0.50;99.90;;;;;;5032742;28;19920;-76
2022/12/04 04:57:34;;;;;;;;;;;-0.50;99.90;;;;;;5032851;28;19925;-76
2022/12/04 05:00:08;;;;;;;;;;;-0.50;99.90;;;;;;5038606;28;19928;-75
2022/12/04 05:02:34;;;;;;;;;;;-0.50;99.90;;;;;;5031266;28;20023;-75
2022/12/04 05:04:59;;;;;;;;;;;-0.50;99.90;;;;;;5054246;28;20048;-75
2022/12/04 05:07:25;;;;;;;;;;;0.50;99.90;;;;;;5049930;28;19928;-76
2022/12/04 05:09:51;;;;;;;;;;;-0.50;99.90;;;;;;5033845;28;19955;-76
2022/12/04 05:12:16;;;;;;;;;;;-0.50;99.90;;;;;;5032861;28;20401;-76
2022/12/04 05:14:42;;;;;;;;;;;-0.50;99.90;;;;;;5051205;28;19921;-76
2022/12/04 05:17:08;;;;;;;;;;;-0.50;99.90;;;;;;5032893;28;19927;-76
2022/12/04 05:22:20;;;;;;;;;;;0.50;99.90;;;;;;5051572;28;19931;-75
2022/12/04 05:24:46;;;;;;;;;;;-0.50;99.90;;;;;;5039215;28;20388;-75
2022/12/04 05:27:12;;;;;;;;;;;1.30;99.90;;;;;;5037836;28;20007;-75
2022/12/04 05:29:37;;;;;;;;;;;0.20;99.90;;;;;;5021487;28;19921;-75
2022/12/04 05:32:03;;;;;;;;;;;-0.50;99.90;;;;;;5036957;28;19928;-75
2022/12/04 05:34:29;;;;;;;;;;;-0.50;99.90;;;;;;5048836;28;19991;-75
2022/12/04 05:36:54;;;;;;;;;;;-0.50;99.90;;;;;;5076871;28;19937;-75
2022/12/04 05:39:20;;;;;;;;;;;-0.50;99.90;;;;;;5064999;28;19931;-76
2022/12/04 05:41:46;;;;;;;;;;;-0.50;99.90;;;;;;5022383;28;19928;-75
2022/12/04 05:44:11;;;;;;;;;;;-0.40;99.90;;;;;;5055265;28;19974;-76
2022/12/04 05:46:37;;;;;;;;;;;-0.50;99.90;;;;;;5050907;28;19976;-76
2022/12/04 05:49:02;;;;;;;;;;;-0.50;99.90;;;;;;5017096;28;19928;-75
2022/12/04 05:51:28;;;;;;;;;;;-0.60;99.90;;;;;;5043744;28;19982;-75
2022/12/04 05:53:53;;;;;;;;;;;-0.50;99.90;;;;;;5020197;28;19921;-75
2022/12/04 05:56:19;;;;;;;;;;;-0.50;99.90;;;;;;5063939;28;19929;-75
2022/12/04 05:58:44;;;;;;;;;;;1.30;99.90;;;;;;5034066;28;19974;-75
2022/12/04 06:01:21;;;;;;;;;;;-0.50;99.90;;;;;;5055269;28;19924;-75
2022/12/04 06:03:46;;;;;;;;;;;0.80;99.90;;;;;;5069183;28;20003;-76
2022/12/04 06:06:13;;;;;;;;;;;-0.30;99.90;;;;;;5045669;28;19978;-76
2022/12/04 06:08:38;;;;;;;;;;;-0.50;99.90;;;;;;5038163;28;19920;-76
2022/12/04 06:11:11;;;;;;;;;;;-0.50;99.90;;;;;;5051220;28;19917;-76
2022/12/04 06:13:38;;;;;;;;;;;-0.50;99.90;;;;;;5032733;28;19924;-76
2022/12/04 06:16:04;;;;;;;;;;;-0.50;99.90;;;;;;5053684;28;19935;-76
2022/12/04 06:18:29;;;;;;;;;;;-0.50;99.90;;;;;;5022217;28;20011;-76
2022/12/04 06:20:58;;;;;;;;;;;-0.50;99.90;;;;;;5051891;28;19921;-76
2022/12/04 06:23:24;;;;;;;;;;;-0.50;99.90;;;;;;5051307;28;19921;-75
2022/12/04 06:25:49;;;;;;;;;;;-0.50;99.90;;;;;;5037092;28;20374;-76
2022/12/04 06:28:15;;;;;;;;;;;-0.50;99.90;;;;;;5022628;28;19950;-75
2022/12/04 06:30:40;;;;;;;;;;;-0.50;99.90;;;;;;5050537;28;19952;-75
2022/12/04 06:33:06;;;;;;;;;;;-0.50;99.90;;;;;;5048979;28;20403;-76
2022/12/04 06:35:31;;;;;;;;;;;0.20;99.90;;;;;;5042868;28;20068;-75
2022/12/04 06:37:57;;;;;;;;;;;-0.60;99.90;;;;;;5026728;28;19928;-75
2022/12/04 06:40:22;;;;;;;;;;;1.20;99.90;;;;;;5052830;28;19921;-76
2022/12/04 06:42:48;;;;;;;;;;;-0.60;99.90;;;;;;5033875;28;19921;-75
2022/12/04 06:45:14;;;;;;;;;;;-0.60;99.90;;;;;;5051277;28;19988;-75
2022/12/04 06:47:39;;;;;;;;;;;-0.60;99.90;;;;;;5050514;28;20424;-76
2022/12/04 06:50:05;;;;;;;;;;;0.30;99.90;;;;;;5031299;28;19928;-75
2022/12/04 06:52:31;;;;;;;;;;;-0.60;99.90;;;;;;5050483;28;19921;-75
2022/12/04 06:54:57;;;;;;;;;;;-0.60;99.90;;;;;;5051214;28;20071;-75
2022/12/04 06:57:23;;;;;;;;;;;0.60;99.90;;;;;;5048253;28;19927;-76
2022/12/04 06:59:48;;;;;;;;;;;-0.60;99.90;;;;;;5051719;28;19921;-76
2022/12/04 07:02:14;;;;;;;;;;;-0.60;99.90;;;;;;5037934;28;19975;-75
2022/12/04 07:04:40;;;;;;;;;;;-0.60;99.90;;;;;;5034991;28;19925;-76
2022/12/04 07:07:07;;;;;;;;;;;-0.60;99.90;;;;;;5050655;28;19924;-75
2022/12/04 07:09:32;;;;;;;;;;;-0.50;99.90;;;;;;5033925;28;20021;-76
2022/12/04 07:11:58;;;;;;;;;;;-0.60;99.90;;;;;;5023142;28;20011;-76
2022/12/04 07:14:23;;;;;;;;;;;-0.40;99.90;;;;;;5055830;28;19920;-75
2022/12/04 07:16:49;;;;;;;;;;;-0.50;99.90;;;;;;5053828;28;20309;-74
2022/12/04 07:19:14;;;;;;;;;;;-0.40;99.90;;;;;;5032553;28;19931;-75
2022/12/04 07:21:40;;;;;;;;;;;0.70;99.90;;;;;;5055919;28;19987;-75
2022/12/04 07:24:06;;;;;;;;;;;-0.50;99.90;;;;;;5039631;28;19928;-75
2022/12/04 07:26:32;;;;;;;;;;;-0.50;99.90;;;;;;5059445;28;19972;-75
2022/12/04 07:28:58;;;;;;;;;;;-0.20;99.90;;;;;;5052353;28;20314;-75
2022/12/04 07:31:24;;;;;;;;;;;-0.50;99.90;;;;;;5049957;28;19928;-76
2022/12/04 07:33:50;;;;;;;;;;;-0.50;99.90;;;;;;5036415;28;19928;-75
2022/12/04 07:36:18;;;;;;;;;;;-0.40;99.90;;;;;;5038272;28;19925;-75
2022/12/04 07:38:43;;;;;;;;;;;-0.50;99.90;;;;;;5034064;28;20393;-76
2022/12/04 07:41:10;;;;;;;;;;;-0.50;99.90;;;;;;5054153;28;19924;-75
2022/12/04 07:43:36;;;;;;;;;;;0.30;99.90;;;;;;5050393;28;19920;-75
2022/12/04 07:46:06;;;;;;;;;;;-0.40;99.90;;;;;;5034405;28;20546;-75
2022/12/04 07:48:31;;;;;;;;;;;-0.40;99.90;;;;;;5051556;28;20007;-75
2022/12/04 07:51:01;;;;;;;;;;;-0.40;99.90;;;;;;5037156;28;20342;-76
2022/12/04 07:53:26;;;;;;;;;;;-0.50;99.90;;;;;;5034842;28;19935;-76
2022/12/04 07:55:52;;;;;;;;;;;-0.40;99.90;;;;;;5053218;28;20237;-76
2022/12/04 07:58:17;;;;;;;;;;;-0.40;99.90;;;;;;5035061;28;20609;-76
2022/12/04 08:00:43;;;;;;;;;;;0.50;99.90;;;;;;5025068;28;19952;-75
2022/12/04 08:03:08;;;;;;;;;;;-0.40;99.90;;;;;;5056467;28;20393;-76
2022/12/04 08:05:34;;;;;;;;;;;-0.40;99.90;;;;;;5033451;28;20279;-76
2022/12/04 08:07:59;;;;;;;;;;;-0.10;99.90;;;;;;5048936;28;20289;-75
2022/12/04 08:10:25;;;;;;;;;;;-0.30;99.90;;;;;;5053191;28;20370;-76
2022/12/04 08:12:51;;;;;;;;;;;-0.30;99.90;;;;;;5019433;28;19924;-76
2022/12/04 08:15:16;;;;;;;;;;;-0.30;99.90;;;;;;5053788;28;19931;-75
2022/12/04 08:17:42;;;;;;;;;;;-0.30;99.90;;;;;;5035023;28;19927;-76
2022/12/04 08:20:07;;;;;;;;;;;-0.30;99.90;;;;;;5049367;28;20159;-76
2022/12/04 08:22:33;;;;;;;;;;;-0.30;99.90;;;;;;5038303;28;20089;-76
2022/12/04 08:24:59;;;;;;;;;;;-0.30;99.90;;;;;;5050704;28;19932;-76
2022/12/04 08:27:24;;;;;;;;;;;-0.30;99.90;;;;;;5045990;28;20387;-76
2022/12/04 08:29:50;;;;;;;;;;;0.00;99.90;;;;;;5030597;28;19920;-77
2022/12/04 08:32:15;;;;;;;;;;;-0.20;99.90;;;;;;5033213;28;19979;-76
2022/12/04 08:34:41;;;;;;;;;;;-0.20;99.90;;;;;;5030195;28;19931;-77
2022/12/04 08:37:06;;;;;;;;;;;-0.20;99.90;;;;;;5045460;28;19921;-77
2022/12/04 08:39:32;;;;;;;;;;;-0.20;99.90;;;;;;5022074;28;20016;-77
2022/12/04 08:41:57;;;;;;;;;;;-0.10;99.90;;;;;;5040268;28;19921;-78
2022/12/04 08:44:23;;;;;;;;;;;-0.10;99.90;;;;;;5031870;28;19927;-78
2022/12/04 08:46:49;;;;;;;;;;;-0.40;99.90;;;;;;5034385;28;19943;-82
2022/12/04 08:49:14;;;;;;;;;;;-1.30;99.90;;;;;;5012021;28;20071;-77
2022/12/04 08:51:40;;;;;;;;;;;0.00;99.90;;;;;;5035396;28;19921;-78
2022/12/04 08:54:06;;;;;;;;;;;0.50;99.90;;;;;;5048960;28;19924;-78
2022/12/04 08:56:32;;;;;;;;;;;0.00;99.90;;;;;;5050169;28;20326;-78
2022/12/04 08:58:58;;;;;;;;;;;0.60;99.90;;;;;;5050509;28;19929;-84
2022/12/04 09:01:24;;;;;;;;;;;0.10;99.90;;;;;;5037854;28;19928;-81
2022/12/04 09:03:50;;;;;;;;;;;0.10;99.90;;;;;;5051924;28;19929;-82
2022/12/04 09:06:16;;;;;;;;;;;0.10;99.90;;;;;;5034175;28;19921;-81
2022/12/04 09:08:42;;;;;;;;;;;0.10;99.90;;;;;;5041560;28;19928;-80
2022/12/04 09:11:12;;;;;;;;;;;0.10;99.90;;;;;;5034218;28;19921;-81
2022/12/04 09:13:38;;;;;;;;;;;1.10;99.90;;;;;;5043632;28;19925;-80
2022/12/04 09:16:05;;;;;;;;;;;0.20;99.90;;;;;;5038387;28;19920;-80
2022/12/04 09:18:31;;;;;;;;;;;0.20;99.90;;;;;;5038684;28;19970;-80
2022/12/04 09:20:57;;;;;;;;;;;0.20;99.90;;;;;;5049034;28;20545;-80
2022/12/04 09:23:24;;;;;;;;;;;0.20;99.90;;;;;;5049983;28;19925;-80
2022/12/04 09:25:49;;;;;;;;;;;0.20;99.90;;;;;;5051213;28;19921;-80
2022/12/04 09:28:15;;;;;;;;;;;0.30;99.90;;;;;;5035493;28;19932;-80
2022/12/04 09:30:40;;;;;;;;;;;2.30;99.90;;;;;;5034180;28;20029;-80
2022/12/04 09:33:06;;;;;;;;;;;0.50;99.90;;;;;;5036022;28;19936;-78
2022/12/04 09:35:32;;;;;;;;;;;1.20;99.90;;;;;;5051040;28;19935;-79
2022/12/04 09:37:58;;;;;;;;;;;0.30;99.90;;;;;;5054377;28;19943;-74
2022/12/04 09:40:25;;;;;;;;;;;0.30;99.90;;;;;;5048375;28;20377;-74
2022/12/04 09:43:02;;;;;;;;;;;0.30;99.90;;;;;;5037571;28;19928;-74
2022/12/04 09:45:32;;;;;;;;;;;0.40;99.90;;;;;;5048478;28;20131;-76
2022/12/04 09:47:59;;;;;;;;;;;1.30;99.90;;;;;;5038842;28;19932;-74
2022/12/04 09:50:45;;;;;;;;;;;0.40;99.90;;;;;;5052796;28;19921;-75
2022/12/04 09:53:17;;;;;;;;;;;0.40;99.90;;;;;;5050649;28;19931;-75
2022/12/04 09:55:46;;;;;;;;;;;0.40;99.90;;;;;;5050168;28;19925;-75
2022/12/04 09:58:14;;;;;;;;;;;0.40;99.90;;;;;;5051652;28;20398;-75
2022/12/04 10:00:43;;;;;;;;;;;1.40;99.90;;;;;;5041070;28;19946;-76
2022/12/04 10:03:16;;;;;;;;;;;0.40;99.90;;;;;;5038325;28;20295;-78
2022/12/04 10:05:57;;;;;;;;;;;0.50;99.90;;;;;;5045798;28;20460;-76
2022/12/04 10:08:39;;;;;;;;;;;0.50;99.90;;;;;;5052054;28;20436;-77
2022/12/04 10:11:15;;;;;;;;;;;0.50;99.90;;;;;;5049075;28;19990;-76
2022/12/04 10:13:54;;;;;;;;;;;0.60;99.90;;;;;;5052685;28;19978;-77
2022/12/04 10:16:27;;;;;;;;;;;0.60;99.90;;;;;;5049768;28;19925;-77
2022/12/04 10:19:02;;;;;;;;;;;0.60;99.90;;;;;;5052819;28;19921;-78
2022/12/04 10:21:33;;;;;;;;;;;0.60;99.90;;;;;;5056798;28;19939;-79
2022/12/04 10:24:18;;;;;;;;;;;1.60;99.90;;;;;;5034412;28;19917;-87
2022/12/04 10:26:45;;;;;;;;;;;0.70;99.90;;;;;;5048636;28;19931;-77
2022/12/04 10:29:17;;;;;;;;;;;1.20;99.90;;;;;;5035118;28;20512;-77
2022/12/04 10:31:43;;;;;;;;;;;0.80;99.90;;;;;;5052092;28;19929;-78
2022/12/04 10:34:17;;;;;;;;;;;0.80;99.90;;;;;;5037971;28;19925;-78
2022/12/04 10:36:46;;;;;;;;;;;0.80;99.90;;;;;;5053723;28;19935;-78
2022/12/04 10:39:17;;;;;;;;;;;1.40;99.90;;;;;;5041982;28;19956;-79
2022/12/04 10:41:52;;;;;;;;;;;0.90;99.90;;;;;;5057021;28;19941;-78
2022/12/04 10:44:19;;;;;;;;;;;0.90;99.90;;;;;;5053336;28;19951;-78
2022/12/04 10:46:45;;;;;;;;;;;0.90;99.90;;;;;;5053473;28;20018;-75
2022/12/04 10:49:19;;;;;;;;;;;0.90;99.90;;;;;;5046258;28;21617;-75
2022/12/04 10:51:45;;;;;;;;;;;0.90;99.90;;;;;;5034289;28;19925;-75
2022/12/04 10:54:29;;;;;;;;;;;1.00;99.90;;;;;;5051888;28;19952;-75
2022/12/04 10:56:54;;;;;;;;;;;1.00;99.90;;;;;;5052694;28;19970;-74
2022/12/04 10:59:21;;;;;;;;;;;1.10;99.90;;;;;;5040062;28;20373;-75
2022/12/04 11:01:46;;;;;;;;;;;1.10;99.90;;;;;;5035357;28;20338;-75
2022/12/04 11:04:20;;;;;;;;;;;1.40;99.90;;;;;;5054463;28;19979;-75
2022/12/04 11:06:48;;;;;;;;;;;1.10;99.90;;;;;;5058254;28;19933;-74
2022/12/04 11:09:22;;;;;;;;;;;1.20;99.90;;;;;;5036189;28;19956;-75
2022/12/04 11:11:48;;;;;;;;;;;1.20;99.90;;;;;;5051629;28;19928;-75
2022/12/04 11:14:16;;;;;;;;;;;1.20;99.90;;;;;;5051469;28;19924;-75
2022/12/04 11:17:02;;;;;;;;;;;1.30;99.90;;;;;;5051156;28;20464;-74
2022/12/04 11:19:28;;;;;;;;;;;1.30;99.90;;;;;;5056089;28;19921;-74
2022/12/04 11:21:55;;;;;;;;;;;1.30;99.90;;;;;;5061027;28;20377;-75
2022/12/04 11:24:25;;;;;;;;;;;1.40;99.90;;;;;;5050326;28;20608;-75
2022/12/04 11:26:51;;;;;;;;;;;1.40;99.90;;;;;;5050529;28;19929;-75
2022/12/04 11:29:17;;;;;;;;;;;1.40;99.90;;;;;;5061113;28;19935;-76
2022/12/04 11:31:51;;;;;;;;;;;1.70;99.90;;;;;;5050385;28;19932;-75
2022/12/04 11:34:18;;;;;;;;;;;1.40;99.90;;;;;;5037170;28;20027;-75
2022/12/04 11:36:48;;;;;;;;;;;1.40;99.90;;;;;;5062426;28;19921;-75
2022/12/04 11:39:16;;;;;;;;;;;1.40;99.90;;;;;;5035100;28;19928;-75
2022/12/04 11:41:42;;;;;;;;;;;1.40;99.90;;;;;;5051110;28;20004;-75
2022/12/04 11:44:40;;;;;;;;;;;1.40;99.90;;;;;;5036002;28;19921;-76
2022/12/04 11:47:14;;;;;;;;;;;1.50;99.90;;;;;;5006861;28;19979;-75
2022/12/04 11:49:40;;;;;;;;;;;1.50;99.90;;;;;;5050974;28;19921;-74
2022/12/04 11:52:19;;;;;;;;;;;1.50;99.90;;;;;;5035163;28;20011;-75
2022/12/04 11:54:45;;;;;;;;;;;1.50;99.90;;;;;;5061979;28;20285;-75
2022/12/04 11:57:37;;;;;;;;;;;2.00;99.90;;;;;;5034938;28;19929;-74
2022/12/04 12:00:17;;;;;;;;;;;1.50;99.90;;;;;;5058249;28;19932;-75
2022/12/04 12:02:42;;;;;;;;;;;1.50;99.90;;;;;;5035519;28;20062;-76
2022/12/04 12:05:17;;;;;;;;;;;1.50;99.90;;;;;;5032389;28;20027;-76
2022/12/04 12:07:49;;;;;;;;;;;1.50;99.90;;;;;;5047425;28;19925;-76
2022/12/04 12:10:26;;;;;;;;;;;1.50;99.90;;;;;;5049179;28;19920;-77
2022/12/04 12:13:16;;;;;;;;;;;1.50;99.90;;;;;;5042614;28;20028;-77
2022/12/04 12:15:44;;;;;;;;;;;1.50;99.90;;;;;;5053971;28;19936;-77
2022/12/04 12:18:24;;;;;;;;;;;1.50;99.90;;;;;;5030393;28;19921;-76
2022/12/04 12:20:52;;;;;;;;;;;1.60;99.90;;;;;;5051523;28;19928;-77
2022/12/04 12:23:40;;;;;;;;;;;1.60;99.90;;;;;;5034821;28;20008;-78
2022/12/04 12:26:10;;;;;;;;;;;1.60;99.90;;;;;;5051660;28;20440;-77
2022/12/04 12:28:45;;;;;;;;;;;1.50;99.90;;;;;;5032240;28;20794;-77
2022/12/04 12:31:28;;;;;;;;;;;1.50;99.90;;;;;;5038265;28;21154;-78
2022/12/04 12:33:57;;;;;;;;;;;1.50;99.90;;;;;;5047474;28;20598;-78
2022/12/04 12:36:24;;;;;;;;;;;1.50;99.90;;;;;;5051540;28;19953;-77
2022/12/04 12:38:55;;;;;;;;;;;1.50;99.90;;;;;;5035872;28;19925;-78
2022/12/04 12:41:29;;;;;;;;;;;1.50;99.90;;;;;;5051103;28;19929;-78
2022/12/04 12:44:16;;;;;;;;;;;1.50;99.90;;;;;;5039672;28;19920;-76
2022/12/04 12:46:50;;;;;;;;;;;1.50;99.90;;;;;;5047027;28;20349;-76
2022/12/04 12:49:26;;;;;;;;;;;1.60;99.90;;;;;;5052120;28;20026;-77
2022/12/04 12:51:59;;;;;;;;;;;1.50;99.90;;;;;;5037338;28;20055;-76
2022/12/04 12:54:27;;;;;;;;;;;1.50;99.90;;;;;;5052205;28;19921;-78
2022/12/04 12:56:55;;;;;;;;;;;1.50;99.90;;;;;;5050968;28;20043;-77
2022/12/04 12:59:22;;;;;;;;;;;1.50;99.90;;;;;;5047557;28;19940;-77
2022/12/04 13:01:48;;;;;;;;;;;1.50;99.90;;;;;;5051921;28;19940;-79
2022/12/04 13:04:28;;;;;;;;;;;1.50;99.90;;;;;;5055945;28;19921;-79
2022/12/04 13:07:02;;;;;;;;;;;1.50;99.90;;;;;;5032771;28;20401;-78
2022/12/04 13:09:30;;;;;;;;;;;1.70;99.90;;;;;;5037794;28;19928;-78
2022/12/04 13:11:58;;;;;;;;;;;1.80;99.90;;;;;;5039743;28;19931;-79
2022/12/04 13:14:24;;;;;;;;;;;1.80;99.90;;;;;;5032429;28;19924;-77
2022/12/04 13:16:54;;;;;;;;;;;2.60;99.90;;;;;;5042550;28;20336;-76
2022/12/04 13:19:22;;;;;;;;;;;1.60;99.90;;;;;;5031888;28;19920;-79
2022/12/04 13:21:50;;;;;;;;;;;1.60;99.90;;;;;;5034809;28;19920;-77
2022/12/04 13:24:28;;;;;;;;;;;1.60;99.90;;;;;;5048977;28;19921;-78
2022/12/04 13:27:03;;;;;;;;;;;1.60;99.90;;;;;;5049288;28;20408;-77
2022/12/04 13:29:28;;;;;;;;;;;1.60;99.90;;;;;;5032583;28;19965;-79
2022/12/04 13:31:59;;;;;;;;;;;1.60;99.90;;;;;;5050874;28;20395;-77
2022/12/04 13:34:37;;;;;;;;;;;2.50;99.90;;;;;;5048016;28;19924;-77
2022/12/04 13:37:15;;;;;;;;;;;1.60;99.90;;;;;;5050550;28;19920;-76
2022/12/04 13:40:00;;;;;;;;;;;1.60;99.90;;;;;;5050829;28;19921;-79
2022/12/04 13:42:27;;;;;;;;;;;1.60;99.90;;;;;;5053769;28;20335;-76
2022/12/04 13:44:58;;;;;;;;;;;1.60;99.90;;;;;;5047514;28;19920;-79
2022/12/04 13:47:28;;;;;;;;;;;1.60;99.90;;;;;;5052348;28;20024;-78
2022/12/04 13:50:04;;;;;;;;;;;1.60;99.90;;;;;;5047951;28;19925;-78
2022/12/04 13:52:39;;;;;;;;;;;1.60;99.90;;;;;;5046572;28;19975;-77
2022/12/04 13:55:23;;;;;;;;;;;1.60;99.90;;;;;;5045345;28;19964;-79
2022/12/04 13:57:53;;;;;;;;;;;1.60;99.90;;;;;;5046904;28;19968;-79
2022/12/04 14:00:27;;;;;;;;;;;1.60;99.90;;;;;;5030997;28;19970;-79
2022/12/04 14:02:54;;;;;;;;;;;1.60;99.90;;;;;;5034943;28;19929;-80
2022/12/04 14:05:31;;;;;;;;;;;1.50;99.90;;;;;;5037487;28;20370;-79
2022/12/04 14:08:02;;;;;;;;;;;1.50;99.90;;;;;;5046062;28;19932;-80
2022/12/04 14:10:30;;;;;;;;;;;1.50;99.90;;;;;;5048628;28;19920;-81
2022/12/04 14:13:11;;;;;;;;;;;1.50;99.90;;;;;;5046783;28;19929;-81
2022/12/04 14:15:37;;;;;;;;;;;1.50;99.90;;;;;;5038961;28;19928;-77
2022/12/04 14:18:14;;;;;;;;;;;1.50;99.90;;;;;;5050775;28;20340;-77
2022/12/04 14:20:41;;;;;;;;;;;1.50;99.90;;;;;;5031972;28;19927;-79
2022/12/04 14:23:21;;;;;;;;;;;1.50;99.90;;;;;;5036207;28;20398;-79
2022/12/04 14:25:47;;;;;;;;;;;1.50;99.90;;;;;;5036578;28;20011;-79
2022/12/04 14:28:26;;;;;;;;;;;1.80;99.90;;;;;;5049399;28;20692;-78
2022/12/04 14:31:07;;;;;;;;;;;1.10;99.90;;;;;;5048243;28;19960;-79
2022/12/04 14:33:37;;;;;;;;;;;1.50;99.90;;;;;;5060483;28;20353;-77
2022/12/04 14:36:08;;;;;;;;;;;2.00;99.90;;;;;;5047947;28;20286;-79
2022/12/04 14:38:34;;;;;;;;;;;1.50;99.90;;;;;;5034718;28;19944;-78
2022/12/04 14:41:03;;;;;;;;;;;1.60;99.90;;;;;;5034977;28;19932;-80
2022/12/04 14:43:39;;;;;;;;;;;1.40;99.90;;;;;;5034242;28;19924;-79
2022/12/04 14:46:12;;;;;;;;;;;1.50;99.90;;;;;;5049736;28;19983;-77
2022/12/04 14:48:52;;;;;;;;;;;1.50;99.90;;;;;;5033298;28;19968;-78
2022/12/04 14:51:28;;;;;;;;;;;1.50;99.90;;;;;;5038543;28;19943;-80